Time;durP1;ratioP1;P1;durP2;ratioP2;P2;SDS_P1;SDS_P2;PMS_P1;PMS_P2;Temp;Humidity;BMP_temperature;BMP_pressure;BME280_temperature;BME280_humidity;BME280_pressure;Samples;Min_cycle;Max_cycle;Signal;HPM_P1;HPM_P2
2021/03/15 00:01:58;;;;;;;6.97;4.80;;;;;;;;;;5093891;28;20204;-63
2021/03/15 00:04:24;;;;;;;8.93;3.95;;;;;;;;;;5093899;28;20220;-63
2021/03/15 00:06:52;;;;;;;6.57;4.05;;;;;;;;;;5107185;28;20212;-63
2021/03/15 00:09:19;;;;;;;10.52;4.10;;;;;;;;;;5104731;28;20570;-64
2021/03/15 00:11:46;;;;;;;9.35;5.13;;;;;;;;;;5098056;28;20215;-64
2021/03/15 00:14:12;;;;;;;6.10;3.50;;;;;;;;;;5093611;28;20220;-62
2021/03/15 00:16:39;;;;;;;9.98;4.80;;;;;;;;;;5093544;28;20200;-63
2021/03/15 00:19:06;;;;;;;5.65;4.15;;;;;;;;;;5093573;28;20204;-64
2021/03/15 00:21:32;;;;;;;10.05;3.83;;;;;;;;;;5093360;28;20208;-63
2021/03/15 00:24:00;;;;;;;8.75;3.65;;;;;;;;;;5096475;28;20220;-63
2021/03/15 00:26:27;;;;;;;13.05;4.45;;;;;;;;;;5097693;28;20203;-63
2021/03/15 00:28:53;;;;;;;12.93;4.35;;;;;;;;;;5097592;28;20273;-63
2021/03/15 00:31:20;;;;;;;8.20;4.53;;;;;;;;;;5097200;28;20737;-63
2021/03/15 00:33:47;;;;;;;11.95;4.60;;;;;;;;;;5097073;28;20220;-63
2021/03/15 00:36:14;;;;;;;9.57;4.25;;;;;;;;;;5097500;28;20245;-63
2021/03/15 00:38:40;;;;;;;8.20;3.78;;;;;;;;;;5097099;28;20207;-62
2021/03/15 00:41:08;;;;;;;20.17;5.22;;;;;;;;;;5102100;28;20196;-63
2021/03/15 00:43:35;;;;;;;5.88;4.20;;;;;;;;;;5097663;28;20277;-64
2021/03/15 00:46:01;;;;;;;11.25;4.15;;;;;;;;;;5098362;28;20615;-63
2021/03/15 00:48:28;;;;;;;5.95;3.80;;;;;;;;;;5099545;28;20231;-63
2021/03/15 00:50:55;;;;;;;6.55;4.20;;;;;;;;;;5098840;28;20200;-63
2021/03/15 00:53:22;;;;;;;12.15;4.50;;;;;;;;;;5098624;28;20201;-63
2021/03/15 00:55:48;;;;;;;10.45;3.70;;;;;;;;;;5097473;28;20200;-63
2021/03/15 00:58:16;;;;;;;8.00;4.57;;;;;;;;;;5097887;28;20203;-63
2021/03/15 01:00:45;;;;;;;13.57;3.58;;;;;;;;;;5108920;28;20215;-64
2021/03/15 01:03:12;;;;;;;10.18;4.40;;;;;;;;;;5098584;28;20200;-64
2021/03/15 01:05:40;;;;;;;10.25;4.25;;;;;;;;;;5097043;28;20197;-65
2021/03/15 01:08:07;;;;;;;8.07;4.97;;;;;;;;;;5097368;28;20254;-62
2021/03/15 01:10:35;;;;;;;7.47;4.22;;;;;;;;;;5097128;28;20203;-63
2021/03/15 01:13:02;;;;;;;6.50;4.30;;;;;;;;;;5097189;28;20737;-63
2021/03/15 01:15:30;;;;;;;6.65;4.45;;;;;;;;;;5097104;28;20216;-63
2021/03/15 01:17:56;;;;;;;9.73;4.40;;;;;;;;;;5097959;28;20324;-62
2021/03/15 01:20:23;;;;;;;5.07;3.85;;;;;;;;;;5097042;28;20204;-62
2021/03/15 01:22:51;;;;;;;10.68;4.25;;;;;;;;;;5096819;28;20208;-63
2021/03/15 01:25:18;;;;;;;12.35;5.00;;;;;;;;;;5096578;28;20232;-62
2021/03/15 01:27:45;;;;;;;6.93;4.00;;;;;;;;;;5097563;28;20664;-63
2021/03/15 01:30:13;;;;;;;7.68;3.90;;;;;;;;;;5104459;28;20196;-63
2021/03/15 01:32:41;;;;;;;4.20;3.38;;;;;;;;;;5102161;28;20619;-63
2021/03/15 01:35:09;;;;;;;5.78;3.40;;;;;;;;;;5096576;28;20228;-64
2021/03/15 01:37:35;;;;;;;6.40;3.80;;;;;;;;;;5098390;28;20204;-64
2021/03/15 01:40:02;;;;;;;7.15;4.55;;;;;;;;;;5100244;28;20200;-65
2021/03/15 01:42:29;;;;;;;6.10;3.67;;;;;;;;;;5100567;28;20200;-64
2021/03/15 01:44:56;;;;;;;3.63;3.22;;;;;;;;;;5100659;28;20228;-63
2021/03/15 01:47:25;;;;;;;6.30;4.28;;;;;;;;;;5098503;28;20265;-63
2021/03/15 01:49:52;;;;;;;6.88;4.43;;;;;;;;;;5098542;28;20247;-64
2021/03/15 01:52:20;;;;;;;4.03;3.72;;;;;;;;;;5098066;28;20207;-63
2021/03/15 01:54:47;;;;;;;4.55;3.90;;;;;;;;;;5098614;28;20231;-62
2021/03/15 01:57:14;;;;;;;4.55;3.50;;;;;;;;;;5098969;28;20222;-63
2021/03/15 01:59:40;;;;;;;4.97;3.40;;;;;;;;;;5097421;28;20672;-63
2021/03/15 02:02:07;;;;;;;4.47;4.07;;;;;;;;;;5096242;28;20671;-64
2021/03/15 02:04:34;;;;;;;4.10;3.58;;;;;;;;;;5095556;28;20712;-63
2021/03/15 02:07:01;;;;;;;4.50;3.90;;;;;;;;;;5095301;28;20208;-63
2021/03/15 02:09:28;;;;;;;5.10;3.55;;;;;;;;;;5095571;28;20223;-63
2021/03/15 02:12:01;;;;;;;3.67;3.28;;;;;;;;;;5095855;28;20215;-64
2021/03/15 02:14:33;;;;;;;3.17;2.58;;;;;;;;;;5095521;28;20228;-63
2021/03/15 02:17:02;;;;;;;2.75;2.55;;;;;;;;;;5095605;28;20313;-63
2021/03/15 02:19:47;;;;;;;3.30;3.00;;;;;;;;;;5095281;28;20207;-63
2021/03/15 02:22:21;;;;;;;3.70;3.38;;;;;;;;;;5095366;28;20200;-63
2021/03/15 02:25:05;;;;;;;3.80;3.08;;;;;;;;;;5095361;28;20220;-64
2021/03/15 02:27:47;;;;;;;2.38;2.17;;;;;;;;;;5097132;28;20196;-64
2021/03/15 02:30:28;;;;;;;3.80;2.78;;;;;;;;;;5094014;28;20664;-64
2021/03/15 02:33:13;;;;;;;2.78;2.35;;;;;;;;;;5096301;28;20177;-64
2021/03/15 02:35:42;;;;;;;2.88;2.22;;;;;;;;;;5095334;28;20204;-63
2021/03/15 02:38:10;;;;;;;2.80;1.75;;;;;;;;;;5094739;28;20192;-64
2021/03/15 02:40:38;;;;;;;1.70;1.58;;;;;;;;;;5095231;28;20204;-62
2021/03/15 02:43:06;;;;;;;1.45;1.35;;;;;;;;;;5094592;28;20207;-62
2021/03/15 02:45:34;;;;;;;1.55;1.45;;;;;;;;;;5094678;28;20211;-64
2021/03/15 02:48:01;;;;;;;1.60;1.50;;;;;;;;;;5093395;28;20234;-63
2021/03/15 02:50:29;;;;;;;2.15;1.67;;;;;;;;;;5094802;28;20208;-62
2021/03/15 02:52:57;;;;;;;2.10;1.90;;;;;;;;;;5094631;28;20734;-61
2021/03/15 02:55:26;;;;;;;1.60;1.50;;;;;;;;;;5094370;28;20235;-62
2021/03/15 02:57:53;;;;;;;1.50;1.40;;;;;;;;;;5094539;28;20694;-63
2021/03/15 03:00:21;;;;;;;1.65;1.42;;;;;;;;;;5105190;28;20200;-62
2021/03/15 03:02:48;;;;;;;1.50;1.40;;;;;;;;;;5101681;28;20278;-62
2021/03/15 03:05:17;;;;;;;1.80;1.70;;;;;;;;;;5094741;28;20224;-62
2021/03/15 03:07:46;;;;;;;2.13;1.60;;;;;;;;;;5094029;28;20322;-63
2021/03/15 03:10:14;;;;;;;1.98;1.77;;;;;;;;;;5094428;28;20204;-62
2021/03/15 03:12:42;;;;;;;2.15;1.95;;;;;;;;;;5094524;28;20200;-62
2021/03/15 03:15:11;;;;;;;2.20;1.83;;;;;;;;;;5094050;28;20269;-62
2021/03/15 03:17:39;;;;;;;2.30;2.10;;;;;;;;;;5094236;28;20204;-63
2021/03/15 03:20:08;;;;;;;2.38;2.17;;;;;;;;;;5094473;28;20200;-62
2021/03/15 03:22:35;;;;;;;2.20;2.00;;;;;;;;;;5094378;28;20200;-62
2021/03/15 03:25:02;;;;;;;1.85;1.75;;;;;;;;;;5093968;28;20224;-62
2021/03/15 03:27:32;;;;;;;2.75;2.15;;;;;;;;;;5094060;28;20609;-62
2021/03/15 03:30:00;;;;;;;2.58;2.38;;;;;;;;;;5093996;28;20228;-63
2021/03/15 03:32:27;;;;;;;2.17;1.95;;;;;;;;;;5094293;28;20253;-62
2021/03/15 03:34:54;;;;;;;3.55;2.20;;;;;;;;;;5094723;28;20221;-62
2021/03/15 03:37:21;;;;;;;2.65;2.45;;;;;;;;;;5095142;28;20197;-62
2021/03/15 03:39:48;;;;;;;2.42;2.13;;;;;;;;;;5093523;28;20193;-62
2021/03/15 03:42:15;;;;;;;2.60;2.20;;;;;;;;;;5094101;28;20684;-63
2021/03/15 03:44:42;;;;;;;2.72;2.28;;;;;;;;;;5095849;28;20220;-62
2021/03/15 03:47:09;;;;;;;2.50;2.30;;;;;;;;;;5095473;28;20254;-63
2021/03/15 03:49:36;;;;;;;2.35;2.15;;;;;;;;;;5094996;28;20223;-63
2021/03/15 03:52:04;;;;;;;2.33;2.13;;;;;;;;;;5093827;28;20246;-62
2021/03/15 03:54:33;;;;;;;2.45;2.25;;;;;;;;;;5094044;28;20227;-62
2021/03/15 03:57:05;;;;;;;3.10;2.80;;;;;;;;;;5093858;28;20203;-62
2021/03/15 03:59:32;;;;;;;3.15;2.70;;;;;;;;;;5093938;28;20184;-62
2021/03/15 04:02:00;;;;;;;3.28;2.80;;;;;;;;;;5096097;28;20199;-62
2021/03/15 04:07:52;;;;;;;3.70;3.10;;;;;;;;;;5126222;27;877211;-63
2021/03/15 04:10:19;;;;;;;4.47;4.10;;;;;;;;;;5134891;28;20203;-61
2021/03/15 04:12:47;;;;;;;4.85;4.45;;;;;;;;;;5135122;28;20199;-62
2021/03/15 04:15:16;;;;;;;4.60;4.20;;;;;;;;;;5114596;28;20834;-62
2021/03/15 04:17:43;;;;;;;4.07;3.67;;;;;;;;;;5111588;28;20200;-62
2021/03/15 04:20:13;;;;;;;5.63;4.53;;;;;;;;;;5111516;28;20203;-62
2021/03/15 04:22:44;;;;;;;4.30;3.90;;;;;;;;;;5111338;28;20203;-61
2021/03/15 04:25:13;;;;;;;4.40;4.00;;;;;;;;;;5111342;28;20234;-62
2021/03/15 04:27:42;;;;;;;4.78;4.30;;;;;;;;;;5115416;28;20219;-63
2021/03/15 04:30:10;;;;;;;4.80;4.30;;;;;;;;;;5115664;28;20210;-62
2021/03/15 04:32:37;;;;;;;5.30;4.18;;;;;;;;;;5094724;28;20199;-61
2021/03/15 04:35:04;;;;;;;5.05;4.57;;;;;;;;;;5112482;28;20239;-62
2021/03/15 04:37:31;;;;;;;5.18;4.53;;;;;;;;;;5110502;28;20214;-63
2021/03/15 04:39:58;;;;;;;6.03;4.63;;;;;;;;;;5112558;28;20206;-63
2021/03/15 04:42:25;;;;;;;5.47;4.80;;;;;;;;;;5111922;28;20200;-63
2021/03/15 04:44:52;;;;;;;5.40;4.45;;;;;;;;;;5110113;28;20776;-63
2021/03/15 04:47:19;;;;;;;4.65;4.25;;;;;;;;;;5110853;28;20211;-62
2021/03/15 04:49:48;;;;;;;7.35;5.18;;;;;;;;;;5115925;28;20206;-63
2021/03/15 04:52:15;;;;;;;7.35;5.07;;;;;;;;;;5125922;28;20195;-63
2021/03/15 04:54:43;;;;;;;5.57;4.93;;;;;;;;;;5110917;28;20639;-62
2021/03/15 04:57:11;;;;;;;5.10;4.60;;;;;;;;;;5110540;28;20640;-63
2021/03/15 04:59:39;;;;;;;6.45;4.90;;;;;;;;;;5113539;28;20200;-62
2021/03/15 05:02:06;;;;;;;5.85;5.25;;;;;;;;;;5125493;28;20208;-63
2021/03/15 05:04:33;;;;;;;7.25;5.57;;;;;;;;;;5114524;28;20228;-63
2021/03/15 05:07:00;;;;;;;6.97;5.47;;;;;;;;;;5109961;28;20267;-62
2021/03/15 05:09:27;;;;;;;6.47;5.55;;;;;;;;;;5110402;28;20227;-62
2021/03/15 05:11:55;;;;;;;7.07;5.95;;;;;;;;;;5109812;28;20200;-62
2021/03/15 05:14:22;;;;;;;7.93;6.25;;;;;;;;;;5110177;28;20226;-62
2021/03/15 05:16:50;;;;;;;7.20;6.07;;;;;;;;;;5109772;28;20195;-63
2021/03/15 05:19:18;;;;;;;8.23;6.30;;;;;;;;;;5095938;28;20204;-63
2021/03/15 05:21:45;;;;;;;7.35;6.55;;;;;;;;;;5096259;28;20196;-62
2021/03/15 05:24:12;;;;;;;6.90;5.43;;;;;;;;;;5095933;28;20595;-62
2021/03/15 05:26:41;;;;;;;6.10;5.40;;;;;;;;;;5096079;28;20220;-62
2021/03/15 05:29:08;;;;;;;8.65;6.57;;;;;;;;;;5097097;28;20596;-63
2021/03/15 05:31:35;;;;;;;8.35;6.35;;;;;;;;;;5096157;28;20196;-63
2021/03/15 05:34:03;;;;;;;7.75;5.93;;;;;;;;;;5096133;28;20216;-63
2021/03/15 05:36:30;;;;;;;7.78;6.40;;;;;;;;;;5096043;28;20203;-63
2021/03/15 05:38:57;;;;;;;8.00;7.13;;;;;;;;;;5096074;28;20204;-63
2021/03/15 05:41:30;;;;;;;9.38;5.72;;;;;;;;;;5096412;28;20204;-62
2021/03/15 05:44:08;;;;;;;6.53;5.63;;;;;;;;;;5098252;28;20790;-61
2021/03/15 05:46:55;;;;;;;7.75;6.95;;;;;;;;;;5097412;28;20211;-63
2021/03/15 05:49:37;;;;;;;7.30;5.22;;;;;;;;;;5096231;28;20284;-63
2021/03/15 05:52:06;;;;;;;6.30;5.70;;;;;;;;;;5093412;28;20215;-63
2021/03/15 05:54:49;;;;;;;6.75;5.80;;;;;;;;;;5095799;28;20715;-64
2021/03/15 05:57:34;;;;;;;7.65;6.47;;;;;;;;;;5095979;28;20176;-63
2021/03/15 06:00:03;;;;;;;7.95;6.60;;;;;;;;;;5055425;28;20203;-63
2021/03/15 06:02:44;;;;;;;6.47;5.32;;;;;;;;;;5095966;28;20197;-62
2021/03/15 06:05:28;;;;;;;7.43;5.40;;;;;;;;;;5095764;28;20231;-62
2021/03/15 06:08:03;;;;;;;7.85;5.85;;;;;;;;;;5095298;28;20220;-62
2021/03/15 06:10:34;;;;;;;5.15;3.58;;;;;;;;;;5096000;28;20278;-62
2021/03/15 06:13:02;;;;;;;5.13;4.63;;;;;;;;;;5095681;28;20181;-61
2021/03/15 06:15:34;;;;;;;5.10;4.13;;;;;;;;;;5095572;28;20220;-62
2021/03/15 06:18:02;;;;;;;5.13;4.63;;;;;;;;;;5095567;28;20283;-62
2021/03/15 06:20:29;;;;;;;4.85;4.25;;;;;;;;;;5095362;28;20615;-64
2021/03/15 06:22:56;;;;;;;4.05;3.40;;;;;;;;;;5095596;28;20227;-62
2021/03/15 06:25:24;;;;;;;6.65;4.65;;;;;;;;;;5094921;28;20723;-63
2021/03/15 06:27:51;;;;;;;4.75;4.15;;;;;;;;;;5095086;28;20700;-62
2021/03/15 06:30:19;;;;;;;4.35;3.95;;;;;;;;;;5094323;28;20204;-62
2021/03/15 06:32:47;;;;;;;5.50;3.50;;;;;;;;;;5095345;28;20200;-63
2021/03/15 06:35:15;;;;;;;4.65;3.75;;;;;;;;;;5095188;28;20220;-63
2021/03/15 06:37:43;;;;;;;5.38;3.70;;;;;;;;;;5096876;28;20271;-61
2021/03/15 06:40:10;;;;;;;4.35;3.70;;;;;;;;;;5097436;28;20842;-62
2021/03/15 06:42:38;;;;;;;4.10;3.35;;;;;;;;;;5095860;28;20245;-62
2021/03/15 06:45:05;;;;;;;3.70;3.40;;;;;;;;;;5096135;28;20599;-62
2021/03/15 06:47:32;;;;;;;4.85;3.90;;;;;;;;;;5096692;28;20397;-62
2021/03/15 06:49:59;;;;;;;4.55;3.40;;;;;;;;;;5095790;28;20672;-62
2021/03/15 06:52:25;;;;;;;5.57;4.25;;;;;;;;;;5097527;28;20204;-63
2021/03/15 06:55:00;;;;;;;5.05;4.43;;;;;;;;;;5097603;28;20224;-61
2021/03/15 06:57:29;;;;;;;4.85;3.50;;;;;;;;;;5098210;28;20203;-62
2021/03/15 06:59:57;;;;;;;4.20;3.67;;;;;;;;;;5109480;28;20753;-62
2021/03/15 07:02:24;;;;;;;4.30;3.80;;;;;;;;;;5105738;28;20260;-63
2021/03/15 07:04:52;;;;;;;6.05;4.20;;;;;;;;;;5100116;28;20224;-62
2021/03/15 07:07:22;;;;;;;4.63;3.83;;;;;;;;;;5094528;28;20299;-63
2021/03/15 07:09:49;;;;;;;6.20;3.50;;;;;;;;;;5094950;28;20238;-61
2021/03/15 07:12:19;;;;;;;5.20;3.28;;;;;;;;;;5101171;28;20253;-61
2021/03/15 07:14:46;;;;;;;3.15;2.85;;;;;;;;;;5097423;28;20300;-62
2021/03/15 07:17:21;;;;;;;4.55;3.67;;;;;;;;;;5094591;28;20207;-62
2021/03/15 07:19:48;;;;;;;5.45;3.53;;;;;;;;;;5094053;28;20188;-62
2021/03/15 07:22:18;;;;;;;6.47;4.05;;;;;;;;;;5094662;28;20200;-61
2021/03/15 07:24:45;;;;;;;8.65;3.65;;;;;;;;;;5095147;28;20595;-62
2021/03/15 07:27:12;;;;;;;4.20;3.80;;;;;;;;;;5095034;28;20220;-62
2021/03/15 07:29:39;;;;;;;4.32;3.92;;;;;;;;;;5094838;28;20205;-62
2021/03/15 07:32:06;;;;;;;6.45;4.32;;;;;;;;;;5095633;28;20196;-62
2021/03/15 07:34:33;;;;;;;8.43;4.85;;;;;;;;;;5095744;28;20265;-61
2021/03/15 07:37:02;;;;;;;5.80;4.38;;;;;;;;;;5095327;28;20204;-62
2021/03/15 07:39:31;;;;;;;6.60;3.95;;;;;;;;;;5097643;28;20203;-62
2021/03/15 07:41:59;;;;;;;7.90;5.03;;;;;;;;;;5094830;28;20207;-62
2021/03/15 07:44:27;;;;;;;8.30;4.88;;;;;;;;;;5097147;28;20220;-64
2021/03/15 07:46:54;;;;;;;6.72;4.10;;;;;;;;;;5098202;28;20725;-64
2021/03/15 07:49:29;;;;;;;6.60;4.60;;;;;;;;;;5097621;28;20200;-62
2021/03/15 07:51:57;;;;;;;5.95;4.20;;;;;;;;;;5097393;28;20203;-63
2021/03/15 07:54:25;;;;;;;5.57;5.03;;;;;;;;;;5095489;28;20224;-62
2021/03/15 07:57:07;;;;;;;6.38;3.70;;;;;;;;;;5094461;28;20200;-62
2021/03/15 07:59:34;;;;;;;3.92;3.53;;;;;;;;;;5093403;28;20208;-63
2021/03/15 08:02:01;;;;;;;7.05;4.13;;;;;;;;;;5093163;28;20207;-61
2021/03/15 08:04:29;;;;;;;6.07;4.53;;;;;;;;;;5094575;28;20710;-62
2021/03/15 08:06:57;;;;;;;6.45;4.47;;;;;;;;;;5093676;28;20224;-61
2021/03/15 08:09:24;;;;;;;5.45;3.75;;;;;;;;;;5096760;28;20204;-62
2021/03/15 08:11:52;;;;;;;4.30;3.28;;;;;;;;;;5093528;28;20200;-62
2021/03/15 08:14:19;;;;;;;4.28;3.88;;;;;;;;;;5094221;28;20216;-60
2021/03/15 08:16:47;;;;;;;5.95;3.78;;;;;;;;;;5094264;28;20197;-61
2021/03/15 08:19:15;;;;;;;6.00;3.20;;;;;;;;;;5094086;28;20672;-60
2021/03/15 08:21:43;;;;;;;8.40;3.85;;;;;;;;;;5093770;28;20205;-61
2021/03/15 08:24:12;;;;;;;6.45;3.20;;;;;;;;;;5094031;28;20224;-60
2021/03/15 08:26:40;;;;;;;6.95;4.10;;;;;;;;;;5093888;28;20220;-61
2021/03/15 08:29:07;;;;;;;4.25;2.88;;;;;;;;;;5093820;28;20208;-63
2021/03/15 08:31:39;;;;;;;3.97;3.45;;;;;;;;;;5093856;28;20209;-62
2021/03/15 08:34:06;;;;;;;6.97;3.42;;;;;;;;;;5093430;28;20235;-63
2021/03/15 08:36:38;;;;;;;4.65;3.22;;;;;;;;;;5093890;28;20428;-62
2021/03/15 08:39:20;;;;;;;5.75;3.40;;;;;;;;;;5093707;28;20426;-61
2021/03/15 08:41:47;;;;;;;5.40;3.60;;;;;;;;;;5092993;28;20196;-61
2021/03/15 08:44:34;;;;;;;6.18;3.80;;;;;;;;;;5093835;28;20216;-63
2021/03/15 08:47:01;;;;;;;5.78;3.70;;;;;;;;;;5093464;28;20216;-62
2021/03/15 08:49:30;;;;;;;5.40;3.80;;;;;;;;;;5092853;28;20500;-62
2021/03/15 08:51:57;;;;;;;7.97;4.40;;;;;;;;;;5093519;28;20200;-62
2021/03/15 08:54:48;;;;;;;8.10;3.95;;;;;;;;;;5096740;28;20224;-63
2021/03/15 08:57:30;;;;;;;8.13;3.40;;;;;;;;;;5097814;28;20188;-63
2021/03/15 08:59:57;;;;;;;10.35;5.80;;;;;;;;;;5110438;28;20181;-63
2021/03/15 09:02:37;;;;;;;10.38;3.78;;;;;;;;;;5104757;28;20208;-61
2021/03/15 09:05:22;;;;;;;6.53;3.88;;;;;;;;;;5099497;28;20228;-62
2021/03/15 09:07:49;;;;;;;8.48;4.10;;;;;;;;;;5098478;28;20593;-62
2021/03/15 09:10:43;;;;;;;9.52;4.97;;;;;;;;;;5098242;28;20214;-62
2021/03/15 09:13:27;;;;;;;10.18;4.40;;;;;;;;;;5099190;28;20185;-62
2021/03/15 09:16:02;;;;;;;7.60;4.22;;;;;;;;;;5097428;28;20678;-63
2021/03/15 09:18:50;;;;;;;7.95;4.55;;;;;;;;;;5098692;28;20191;-62
2021/03/15 09:21:36;;;;;;;7.45;4.45;;;;;;;;;;5097623;28;20200;-63
2021/03/15 09:24:23;;;;;;;8.73;3.88;;;;;;;;;;5097359;28;20228;-61
2021/03/15 09:26:51;;;;;;;7.50;4.10;;;;;;;;;;5097082;28;20586;-63
2021/03/15 09:29:18;;;;;;;8.25;3.80;;;;;;;;;;5097748;28;20211;-63
2021/03/15 09:31:58;;;;;;;6.18;3.85;;;;;;;;;;5112919;28;20208;-62
2021/03/15 09:34:25;;;;;;;9.02;4.18;;;;;;;;;;5098834;28;20224;-63
2021/03/15 09:36:52;;;;;;;8.15;3.83;;;;;;;;;;5096996;28;20204;-63
2021/03/15 09:39:19;;;;;;;8.45;4.80;;;;;;;;;;5096566;28;20579;-61
2021/03/15 09:41:47;;;;;;;6.97;4.15;;;;;;;;;;5096614;28;20200;-62
2021/03/15 09:44:14;;;;;;;8.23;4.47;;;;;;;;;;5096753;28;20235;-63
2021/03/15 09:46:41;;;;;;;14.95;5.13;;;;;;;;;;5096694;28;20220;-61
2021/03/15 09:49:08;;;;;;;5.55;3.90;;;;;;;;;;5096672;28;20204;-62
2021/03/15 09:51:35;;;;;;;14.25;4.85;;;;;;;;;;5096481;28;20254;-61
2021/03/15 09:54:02;;;;;;;10.13;5.70;;;;;;;;;;5096152;28;20252;-63
2021/03/15 09:56:29;;;;;;;9.75;4.43;;;;;;;;;;5095808;28;20254;-63
2021/03/15 09:58:55;;;;;;;10.40;4.53;;;;;;;;;;5096914;28;20277;-61
2021/03/15 10:01:23;;;;;;;11.38;5.13;;;;;;;;;;5103332;28;20196;-62
2021/03/15 10:03:54;;;;;;;8.90;4.70;;;;;;;;;;5098499;28;20219;-60
2021/03/15 10:06:21;;;;;;;10.63;4.68;;;;;;;;;;5097058;28;20652;-62
2021/03/15 10:08:48;;;;;;;7.70;5.05;;;;;;;;;;5099856;28;20192;-62
2021/03/15 10:11:15;;;;;;;10.77;4.28;;;;;;;;;;5103266;28;20291;-63
2021/03/15 10:13:42;;;;;;;9.88;4.38;;;;;;;;;;5100636;28;20217;-61
2021/03/15 10:16:09;;;;;;;8.48;4.45;;;;;;;;;;5101224;28;20222;-62
2021/03/15 10:18:36;;;;;;;7.30;4.95;;;;;;;;;;5103848;28;20234;-62
2021/03/15 10:21:03;;;;;;;10.10;5.07;;;;;;;;;;5102731;28;20676;-61
2021/03/15 10:23:32;;;;;;;7.68;4.75;;;;;;;;;;5100850;28;20227;-61
2021/03/15 10:25:59;;;;;;;7.68;4.93;;;;;;;;;;5103061;28;20210;-63
2021/03/15 10:28:26;;;;;;;6.65;3.80;;;;;;;;;;5113663;28;20196;-62
2021/03/15 10:30:53;;;;;;;7.30;4.38;;;;;;;;;;5100683;28;20196;-62
2021/03/15 10:33:20;;;;;;;11.77;5.10;;;;;;;;;;5100943;28;20594;-62
2021/03/15 10:35:48;;;;;;;6.85;3.67;;;;;;;;;;5102251;28;20200;-63
2021/03/15 10:38:15;;;;;;;9.23;4.47;;;;;;;;;;5103402;28;20281;-62
2021/03/15 10:40:42;;;;;;;8.82;3.97;;;;;;;;;;5108982;28;20200;-62
2021/03/15 10:43:14;;;;;;;12.25;4.22;;;;;;;;;;5108223;28;20203;-64
2021/03/15 10:45:41;;;;;;;6.97;3.60;;;;;;;;;;5104818;28;20230;-63
2021/03/15 10:48:08;;;;;;;6.20;4.30;;;;;;;;;;5103947;28;20224;-62
2021/03/15 10:50:35;;;;;;;6.93;4.00;;;;;;;;;;5104586;28;20196;-63
2021/03/15 10:53:12;;;;;;;9.27;4.72;;;;;;;;;;5106052;28;20204;-62
2021/03/15 10:55:39;;;;;;;14.18;4.60;;;;;;;;;;5104473;28;20211;-62
2021/03/15 10:58:07;;;;;;;9.77;4.75;;;;;;;;;;5103046;28;20200;-62
2021/03/15 11:00:35;;;;;;;8.10;3.35;;;;;;;;;;5107829;28;20203;-61
2021/03/15 11:03:02;;;;;;;8.02;3.42;;;;;;;;;;5104850;28;20200;-61
2021/03/15 11:05:29;;;;;;;6.57;4.18;;;;;;;;;;5096786;28;20220;-62
2021/03/15 11:07:56;;;;;;;5.93;3.00;;;;;;;;;;5098717;28;20220;-61
2021/03/15 11:10:24;;;;;;;7.53;3.20;;;;;;;;;;5095706;28;20208;-61
2021/03/15 11:12:52;;;;;;;9.10;4.20;;;;;;;;;;5095849;28;20200;-61
2021/03/15 11:15:23;;;;;;;10.93;4.00;;;;;;;;;;5094935;28;20227;-61
2021/03/15 11:18:16;;;;;;;7.88;3.60;;;;;;;;;;5095750;28;20206;-61
2021/03/15 11:20:47;;;;;;;10.45;2.90;;;;;;;;;;5049631;28;20203;-63
2021/03/15 11:23:15;;;;;;;8.30;3.20;;;;;;;;;;5098351;28;20188;-63
2021/03/15 11:25:42;;;;;;;8.00;3.05;;;;;;;;;;5099150;28;20253;-62
2021/03/15 11:28:11;;;;;;;4.80;2.25;;;;;;;;;;5098437;28;20610;-62
2021/03/15 11:30:38;;;;;;;4.28;1.90;;;;;;;;;;5100640;28;20238;-61
2021/03/15 11:33:07;;;;;;;2.72;1.50;;;;;;;;;;5102876;28;20235;-62
2021/03/15 11:35:34;;;;;;;6.82;2.60;;;;;;;;;;5099492;28;20357;-62
2021/03/15 11:38:01;;;;;;;4.35;1.52;;;;;;;;;;5099769;28;20272;-61
2021/03/15 11:40:39;;;;;;;5.85;1.63;;;;;;;;;;5100836;28;20196;-63
2021/03/15 11:43:08;;;;;;;5.40;2.17;;;;;;;;;;5100323;28;20208;-62
2021/03/15 11:45:35;;;;;;;5.32;1.77;;;;;;;;;;5099462;28;20208;-63
2021/03/15 11:48:03;;;;;;;5.53;1.63;;;;;;;;;;5101752;28;20211;-62
2021/03/15 11:50:30;;;;;;;3.15;2.00;;;;;;;;;;5099864;28;20223;-64
2021/03/15 11:52:57;;;;;;;4.35;1.92;;;;;;;;;;5099884;28;20197;-62
2021/03/15 11:55:25;;;;;;;2.10;1.25;;;;;;;;;;5098226;28;20235;-63
2021/03/15 11:57:52;;;;;;;9.18;2.50;;;;;;;;;;5099641;28;20193;-62
2021/03/15 12:00:21;;;;;;;3.53;2.05;;;;;;;;;;5097129;28;20219;-63
2021/03/15 12:02:48;;;;;;;3.75;1.85;;;;;;;;;;5095828;28;20224;-64
2021/03/15 12:05:15;;;;;;;4.68;2.25;;;;;;;;;;5095569;28;20724;-62
2021/03/15 12:07:42;;;;;;;5.95;2.20;;;;;;;;;;5097805;28;20227;-63
2021/03/15 12:10:10;;;;;;;5.93;2.45;;;;;;;;;;5099876;28;20579;-63
2021/03/15 12:12:37;;;;;;;7.18;2.40;;;;;;;;;;5097324;28;20201;-61
2021/03/15 12:15:04;;;;;;;7.97;2.30;;;;;;;;;;5098638;28;20216;-62
2021/03/15 12:17:33;;;;;;;6.25;2.80;;;;;;;;;;5099219;28;20200;-62
2021/03/15 12:20:00;;;;;;;6.80;2.53;;;;;;;;;;5098154;28;20208;-63
2021/03/15 12:22:26;;;;;;;7.45;2.88;;;;;;;;;;5098498;28;20207;-62
2021/03/15 12:24:53;;;;;;;11.05;2.45;;;;;;;;;;5099315;28;20216;-61
2021/03/15 12:27:20;;;;;;;4.07;2.40;;;;;;;;;;5100021;28;20220;-62
2021/03/15 12:29:47;;;;;;;5.38;2.60;;;;;;;;;;5102642;28;20196;-62
2021/03/15 12:32:13;;;;;;;9.10;2.75;;;;;;;;;;5103324;28;20211;-63
2021/03/15 12:34:41;;;;;;;8.25;3.78;;;;;;;;;;5103925;28;20228;-62
2021/03/15 12:37:08;;;;;;;5.93;2.88;;;;;;;;;;5105592;28;20196;-62
2021/03/15 12:39:35;;;;;;;5.47;2.10;;;;;;;;;;5105667;28;20204;-63
2021/03/15 12:42:02;;;;;;;8.27;2.40;;;;;;;;;;5106585;28;20207;-62
2021/03/15 12:44:29;;;;;;;9.25;2.33;;;;;;;;;;5104512;28;20242;-62
2021/03/15 12:46:55;;;;;;;7.07;2.22;;;;;;;;;;5105927;28;20220;-63
2021/03/15 12:49:22;;;;;;;4.82;2.00;;;;;;;;;;5106784;28;20560;-62
2021/03/15 12:51:50;;;;;;;6.95;1.45;;;;;;;;;;5106647;28;20196;-62
2021/03/15 12:54:16;;;;;;;3.90;1.80;;;;;;;;;;5107196;28;20220;-62
2021/03/15 12:56:43;;;;;;;5.40;1.85;;;;;;;;;;5107804;28;20197;-62
2021/03/15 12:59:12;;;;;;;5.57;2.63;;;;;;;;;;5105076;28;20222;-63
2021/03/15 13:01:38;;;;;;;3.88;2.35;;;;;;;;;;5103422;28;20205;-63
2021/03/15 13:04:05;;;;;;;5.03;2.25;;;;;;;;;;5106810;28;20224;-64
2021/03/15 13:06:32;;;;;;;5.00;1.73;;;;;;;;;;5108314;28;20208;-62
2021/03/15 13:09:00;;;;;;;5.40;1.95;;;;;;;;;;5103237;28;20184;-63
2021/03/15 13:11:27;;;;;;;7.20;2.38;;;;;;;;;;5100760;28;20672;-62
2021/03/15 13:13:53;;;;;;;5.05;2.05;;;;;;;;;;5102530;28;20216;-62
2021/03/15 13:16:20;;;;;;;7.93;2.47;;;;;;;;;;5103128;28;20201;-62
2021/03/15 13:18:47;;;;;;;4.90;1.90;;;;;;;;;;5103682;28;20205;-63
2021/03/15 13:21:14;;;;;;;4.43;1.60;;;;;;;;;;5103674;28;20227;-62
2021/03/15 13:23:41;;;;;;;12.32;2.72;;;;;;;;;;5104473;28;20246;-63
2021/03/15 13:26:08;;;;;;;8.68;2.95;;;;;;;;;;5103858;28;20690;-62
2021/03/15 13:28:35;;;;;;;6.15;2.60;;;;;;;;;;5103522;28;20212;-62
2021/03/15 13:31:02;;;;;;;5.82;2.20;;;;;;;;;;5102728;28;20575;-62
2021/03/15 13:33:29;;;;;;;4.60;2.40;;;;;;;;;;5102725;28;20718;-63
2021/03/15 13:35:55;;;;;;;9.88;2.40;;;;;;;;;;5103494;28;20196;-63
2021/03/15 13:38:22;;;;;;;5.88;1.92;;;;;;;;;;5103329;28;20196;-64
2021/03/15 13:40:49;;;;;;;5.97;2.38;;;;;;;;;;5106977;28;20200;-63
2021/03/15 13:43:17;;;;;;;11.88;2.20;;;;;;;;;;5106112;28;20204;-63
2021/03/15 13:45:44;;;;;;;3.88;2.13;;;;;;;;;;5101601;28;20234;-64
2021/03/15 13:48:10;;;;;;;3.25;1.42;;;;;;;;;;5103215;28;20223;-62
2021/03/15 13:50:37;;;;;;;5.60;1.60;;;;;;;;;;5103029;28;20694;-62
2021/03/15 13:53:04;;;;;;;9.30;2.03;;;;;;;;;;5100647;28;20257;-61
2021/03/15 13:55:31;;;;;;;5.80;1.98;;;;;;;;;;5100306;28;20285;-63
2021/03/15 13:57:58;;;;;;;12.55;3.08;;;;;;;;;;5101610;28;20335;-63
2021/03/15 14:00:26;;;;;;;7.47;2.50;;;;;;;;;;5103018;28;20264;-63
2021/03/15 14:02:53;;;;;;;7.38;2.20;;;;;;;;;;5103661;28;20232;-62
2021/03/15 14:05:20;;;;;;;8.52;2.47;;;;;;;;;;5103921;28;20239;-63
2021/03/15 14:07:47;;;;;;;8.75;2.20;;;;;;;;;;5101900;28;20216;-63
2021/03/15 14:10:14;;;;;;;11.18;2.38;;;;;;;;;;5103235;28;20196;-61
2021/03/15 14:12:41;;;;;;;8.85;2.10;;;;;;;;;;5103035;28;20201;-61
2021/03/15 14:15:09;;;;;;;9.43;2.20;;;;;;;;;;5103916;28;20220;-62
2021/03/15 14:17:36;;;;;;;6.57;2.15;;;;;;;;;;5103217;28;20668;-61
2021/03/15 14:20:04;;;;;;;9.85;2.30;;;;;;;;;;5104257;28;20300;-62
2021/03/15 14:22:31;;;;;;;9.55;2.40;;;;;;;;;;5106015;28;20207;-63
2021/03/15 14:24:57;;;;;;;8.48;2.30;;;;;;;;;;5103601;28;20216;-61
2021/03/15 14:27:25;;;;;;;5.65;2.28;;;;;;;;;;5100772;28;20216;-62
2021/03/15 14:29:51;;;;;;;7.18;2.15;;;;;;;;;;5100220;28;20200;-64
2021/03/15 14:32:18;;;;;;;5.40;2.13;;;;;;;;;;5100256;28;20201;-61
2021/03/15 14:34:46;;;;;;;17.17;4.20;;;;;;;;;;5100350;28;20227;-63
2021/03/15 14:37:12;;;;;;;8.77;2.40;;;;;;;;;;5098136;28;20193;-62
2021/03/15 14:39:39;;;;;;;11.23;2.90;;;;;;;;;;5098350;28;20254;-61
2021/03/15 14:42:06;;;;;;;10.68;3.03;;;;;;;;;;5097142;28;20200;-63
2021/03/15 14:44:33;;;;;;;19.30;2.95;;;;;;;;;;5097009;28;20282;-62
2021/03/15 14:47:00;;;;;;;6.50;2.13;;;;;;;;;;5097961;28;20406;-62
2021/03/15 14:49:27;;;;;;;10.82;2.80;;;;;;;;;;5096385;28;20785;-63
2021/03/15 14:51:55;;;;;;;10.45;3.08;;;;;;;;;;5095411;28;20429;-64
2021/03/15 14:54:22;;;;;;;7.20;2.78;;;;;;;;;;5094379;28;20462;-62